aviador You're here:

PAWS Decoded Metar

WASILLA in AK, USA
Report Time2017-07-24 15:56:00
UTC Time2017-07-24 16:47:26
Flight Rules vfr VFR
Wind230° at 03 kt
W.Decomp.*RWY 21: 3.0 kt HW 0.2 kt LCW
W.Rank230° ranks 13
Current wind is below 230° avg. (4.4)
Visibility9999 m
Phenomena:N/A
Clouds:Overcast 045 Hf
Expected CloudBase > 1,600 ft AGL from Temp-Dew spread
Ceiling4,500 ft
Temp16°C (ISA +2)
Dew Point12°C (77% RH)
AAT15.5°C
QNH1019 hPa
Density Alt538 ft
Elevation351 ft
Report Wrong Elevation
Raw Report
PAWS 241556Z AUTO 23003KT 10SM OVC045 16/12 A3010 RMK AO2 SLP205
T01560117=

Extra information for PAWS:More info

Metar Taf Metar & Taf Last 4 Metars F.Rules Stats Wind Profile Meteogram Temp Stats Airport Information Weather charts Add Link Nearby VenuesMetar ALERT Operation Metar Decoded Social comments

AIRNAV info for PAWS